Time;durP1;ratioP1;P1;durP2;ratioP2;P2;SDS_P1;SDS_P2;PMS_P1;PMS_P2;Temp;Humidity;BMP_temperature;BMP_pressure;BME280_temperature;BME280_humidity;BME280_pressure;Samples;Min_cycle;Max_cycle;Signal;HPM_P1;HPM_P2
2021/11/18 00:00:10;;;;;;;12.93;8.00;;;12.80;47.10;;;;;;6127249;23;20443;-88
2021/11/18 00:02:37;;;;;;;11.30;7.50;;;13.00;52.30;;;;;;6126802;23;20898;-89
2021/11/18 00:05:06;;;;;;;10.20;7.00;;;13.10;49.80;;;;;;6126327;23;20942;-88
2021/11/18 00:07:33;;;;;;;13.03;8.77;;;12.90;50.70;;;;;;6126266;23;20503;-87
2021/11/18 00:10:00;;;;;;;15.07;10.00;;;13.00;47.20;;;;;;6126850;23;20458;-88
2021/11/18 00:12:28;;;;;;;10.67;7.47;;;13.00;49.20;;;;;;6126558;23;20459;-88
2021/11/18 00:14:55;;;;;;;15.67;9.27;;;12.90;50.50;;;;;;6126776;23;20872;-88
2021/11/18 00:17:22;;;;;;;9.80;7.37;;;13.10;47.40;;;;;;6127218;23;20443;-88
2021/11/18 00:19:49;;;;;;;12.90;8.80;;;13.10;50.40;;;;;;6126731;23;20427;-88
2021/11/18 00:22:16;;;;;;;13.30;9.07;;;13.20;47.80;;;;;;6126386;23;20396;-89
2021/11/18 00:24:44;;;;;;;11.83;7.53;;;13.20;50.20;;;;;;6126797;23;20399;-88
2021/11/18 00:27:11;;;;;;;14.07;8.90;;;13.20;51.60;;;;;;6126834;23;20880;-88
2021/11/18 00:29:39;;;;;;;12.03;7.70;;;13.20;45.80;;;;;;6127149;23;20431;-88
2021/11/18 00:32:07;;;;;;;12.07;7.67;;;13.10;48.50;;;;;;6127089;23;20418;-89
2021/11/18 00:34:34;;;;;;;16.37;7.90;;;13.10;47.40;;;;;;6127149;23;20441;-88
2021/11/18 00:37:01;;;;;;;13.60;8.57;;;12.90;46.90;;;;;;6127619;23;20809;-88
2021/11/18 00:39:28;;;;;;;12.27;7.67;;;12.80;49.50;;;;;;6126393;23;20439;-88
2021/11/18 00:41:55;;;;;;;10.83;6.90;;;13.10;50.20;;;;;;6130667;23;20478;-88
2021/11/18 00:44:22;;;;;;;13.87;7.90;;;13.10;48.00;;;;;;6133747;23;20840;-88
2021/11/18 00:46:50;;;;;;;9.53;7.07;;;12.90;46.10;;;;;;6128008;23;20787;-88
2021/11/18 00:49:17;;;;;;;8.50;5.50;;;12.80;49.00;;;;;;6128105;23;20485;-88
2021/11/18 00:51:44;;;;;;;11.70;7.93;;;13.20;53.50;;;;;;6127660;23;20408;-88
2021/11/18 00:54:12;;;;;;;13.40;8.37;;;13.50;49.30;;;;;;6127561;23;20411;-88
2021/11/18 00:56:39;;;;;;;15.43;7.90;;;13.20;46.30;;;;;;6127260;23;20439;-88
2021/11/18 00:59:06;;;;;;;13.00;7.67;;;12.60;46.80;;;;;;6126169;23;20740;-88
2021/11/18 01:01:41;;;;;;;17.20;9.10;;;12.60;49.10;;;;;;6126410;23;20462;-88
2021/11/18 01:04:10;;;;;;;16.03;8.50;;;12.80;47.10;;;;;;6126846;23;20460;-88
2021/11/18 01:06:37;;;;;;;10.17;7.80;;;12.90;47.90;;;;;;6126675;23;20481;-88
2021/11/18 01:09:04;;;;;;;16.83;8.60;;;13.00;47.50;;;;;;6126706;23;20446;-88
2021/11/18 01:11:33;;;;;;;11.33;7.47;;;12.80;47.90;;;;;;6126501;23;20396;-88
2021/11/18 01:14:02;;;;;;;13.40;8.70;;;12.60;47.50;;;;;;6126151;23;20664;-89
2021/11/18 01:16:32;;;;;;;12.93;8.90;;;12.60;47.10;;;;;;6128030;23;20451;-88
2021/11/18 01:18:59;;;;;;;9.87;7.30;;;12.50;47.50;;;;;;6130782;23;20431;-88
2021/11/18 01:21:28;;;;;;;13.97;8.30;;;12.60;48.70;;;;;;6130909;23;20410;-88
2021/11/18 01:23:55;;;;;;;10.80;7.73;;;12.70;47.30;;;;;;6148815;23;20455;-87
2021/11/18 01:26:22;;;;;;;14.93;8.70;;;12.70;47.90;;;;;;6142176;23;20423;-88
2021/11/18 01:28:51;;;;;;;15.27;8.20;;;12.80;48.20;;;;;;6145962;23;20391;-88
2021/11/18 01:31:18;;;;;;;11.60;7.73;;;12.80;48.10;;;;;;6151709;23;20482;-88
2021/11/18 01:33:46;;;;;;;12.60;8.20;;;12.80;51.80;;;;;;6129477;23;20524;-89
2021/11/18 01:36:13;;;;;;;13.30;7.67;;;13.10;50.60;;;;;;6127396;23;20482;-88
2021/11/18 01:38:41;;;;;;;11.77;7.83;;;13.30;48.60;;;;;;6127479;23;20404;-89
2021/11/18 01:41:11;;;;;;;13.80;7.57;;;13.40;49.50;;;;;;6127636;23;20458;-88
2021/11/18 01:43:40;;;;;;;11.93;7.73;;;13.00;46.50;;;;;;6127151;23;20439;-89
2021/11/18 01:46:10;;;;;;;12.97;7.40;;;12.80;48.60;;;;;;6126108;23;20407;-88
2021/11/18 01:48:37;;;;;;;11.93;7.67;;;12.70;47.90;;;;;;6126096;23;20401;-89
2021/11/18 01:51:06;;;;;;;11.30;7.40;;;12.70;48.80;;;;;;6126341;23;20819;-88
2021/11/18 01:53:37;;;;;;;14.30;8.63;;;12.70;48.70;;;;;;6128755;23;20437;-89
2021/11/18 01:56:06;;;;;;;13.27;8.67;;;12.80;47.80;;;;;;6126332;23;20491;-89
2021/11/18 01:58:33;;;;;;;12.47;8.10;;;12.90;50.40;;;;;;6125957;23;20410;-88
2021/11/18 02:01:01;;;;;;;14.47;7.90;;;12.90;46.90;;;;;;6126716;23;20506;-89
2021/11/18 02:03:29;;;;;;;16.20;8.90;;;13.00;50.30;;;;;;6127252;23;20421;-88
2021/11/18 02:05:58;;;;;;;14.30;7.33;;;13.00;50.50;;;;;;6126520;23;20396;-88
2021/11/18 02:08:25;;;;;;;10.50;6.33;;;13.20;49.00;;;;;;6125844;23;20400;-88
2021/11/18 02:10:55;;;;;;;12.93;7.40;;;13.30;49.00;;;;;;6126063;23;20463;-88
2021/11/18 02:13:24;;;;;;;12.23;8.03;;;13.10;47.90;;;;;;6126057;23;20458;-89
2021/11/18 02:15:54;;;;;;;18.53;8.00;;;13.00;48.40;;;;;;6126571;23;20392;-88
2021/11/18 02:18:23;;;;;;;14.53;8.27;;;12.90;47.70;;;;;;6126430;23;20767;-89
2021/11/18 02:20:53;;;;;;;10.87;7.60;;;13.20;49.00;;;;;;6125679;23;20462;-88
2021/11/18 02:23:23;;;;;;;12.10;7.30;;;13.10;49.00;;;;;;6124936;23;20426;-88
2021/11/18 02:25:51;;;;;;;13.90;7.87;;;13.50;52.80;;;;;;6126952;23;20476;-89
2021/11/18 02:28:18;;;;;;;14.93;8.20;;;13.40;47.00;;;;;;6125180;23;20446;-89
2021/11/18 02:30:46;;;;;;;11.03;6.83;;;13.10;48.30;;;;;;6125686;23;20939;-89
2021/11/18 02:33:16;;;;;;;9.70;7.10;;;13.10;49.60;;;;;;6126209;23;20407;-89
2021/11/18 02:35:44;;;;;;;21.40;7.37;;;13.00;50.90;;;;;;6126054;23;20871;-88
2021/11/18 02:38:14;;;;;;;10.50;7.60;;;12.90;49.60;;;;;;6126643;23;20522;-88
2021/11/18 02:40:42;;;;;;;13.27;7.17;;;13.10;49.70;;;;;;6126255;23;20459;-88
2021/11/18 02:43:14;;;;;;;12.60;7.50;;;13.00;50.50;;;;;;6144870;23;20463;-86
2021/11/18 02:45:43;;;;;;;11.20;7.57;;;13.00;48.00;;;;;;6152434;23;20455;-87
2021/11/18 02:48:11;;;;;;;11.50;7.90;;;13.20;48.30;;;;;;6152346;23;20399;-87
2021/11/18 02:50:41;;;;;;;10.90;7.37;;;13.30;48.20;;;;;;6144072;23;20424;-88
2021/11/18 02:53:09;;;;;;;14.83;7.67;;;13.20;47.10;;;;;;6126035;23;20451;-88
2021/11/18 02:55:39;;;;;;;8.43;6.70;;;12.90;47.80;;;;;;6125995;23;20435;-88
2021/11/18 02:58:07;;;;;;;10.10;6.87;;;12.70;48.60;;;;;;6126133;23;20986;-88
2021/11/18 03:00:38;;;;;;;16.33;6.93;;;12.40;48.80;;;;;;6125814;23;20434;-89
2021/11/18 03:03:05;;;;;;;11.73;7.70;;;12.50;49.70;;;;;;6127571;23;20454;-88
2021/11/18 03:05:31;;;;;;;12.30;8.30;;;12.50;51.80;;;;;;6142196;23;20419;-88
2021/11/18 03:07:58;;;;;;;11.70;8.23;;;12.90;49.60;;;;;;6142832;23;20409;-88
2021/11/18 03:10:27;;;;;;;11.43;7.30;;;12.90;49.10;;;;;;6137139;23;20461;-88
2021/11/18 03:12:56;;;;;;;9.97;7.53;;;12.90;52.20;;;;;;6127346;23;20454;-88
2021/11/18 03:15:25;;;;;;;8.50;6.80;;;13.10;51.20;;;;;;6127256;23;20449;-89
2021/11/18 03:17:52;;;;;;;11.70;8.80;;;13.00;49.90;;;;;;6127496;23;20776;-89
2021/11/18 03:20:22;;;;;;;14.47;9.37;;;12.90;52.20;;;;;;6127751;23;20459;-88
2021/11/18 03:22:50;;;;;;;11.27;6.50;;;13.20;52.50;;;;;;6127559;23;20411;-88
2021/11/18 03:25:21;;;;;;;12.47;9.50;;;13.40;51.80;;;;;;6127302;23;20443;-87
2021/11/18 03:27:48;;;;;;;13.97;9.10;;;13.20;49.70;;;;;;6127862;23;20387;-87
2021/11/18 03:30:22;;;;;;;12.83;9.50;;;13.30;50.50;;;;;;6127946;23;20412;-87
2021/11/18 03:32:49;;;;;;;16.23;10.10;;;13.40;48.70;;;;;;6128903;23;20392;-87
2021/11/18 03:35:17;;;;;;;14.77;9.63;;;13.20;48.90;;;;;;6127876;23;20415;-88
2021/11/18 03:37:44;;;;;;;18.03;9.90;;;13.00;49.70;;;;;;6127185;23;20908;-88
2021/11/18 03:40:12;;;;;;;17.20;10.63;;;13.00;51.00;;;;;;6127265;23;20435;-88
2021/11/18 03:42:39;;;;;;;14.70;10.17;;;12.80;51.10;;;;;;6127461;23;20415;-88
2021/11/18 03:45:07;;;;;;;14.43;9.93;;;12.60;50.20;;;;;;6127108;23;20965;-88
2021/11/18 03:47:36;;;;;;;20.47;11.10;;;12.60;51.60;;;;;;6128435;23;20458;-88
2021/11/18 03:50:04;;;;;;;19.43;10.90;;;12.40;51.70;;;;;;6128925;23;20472;-88
2021/11/18 03:52:31;;;;;;;17.60;10.83;;;12.00;51.30;;;;;;6130021;23;20395;-88
2021/11/18 03:54:57;;;;;;;19.90;11.93;;;12.10;53.60;;;;;;6129553;23;20413;-88
2021/11/18 03:57:24;;;;;;;18.43;10.30;;;12.30;52.70;;;;;;6138771;23;20439;-88
2021/11/18 03:59:52;;;;;;;19.47;10.57;;;12.30;53.50;;;;;;6148477;23;20415;-88
2021/11/18 04:02:20;;;;;;;16.53;11.07;;;12.50;52.10;;;;;;6147075;23;20415;-89
2021/11/18 04:04:50;;;;;;;17.60;11.23;;;12.20;51.50;;;;;;6150746;23;20407;-88
2021/11/18 04:07:17;;;;;;;21.03;12.77;;;12.20;51.60;;;;;;6153719;23;20381;-88
2021/11/18 04:09:46;;;;;;;21.07;12.13;;;11.80;52.40;;;;;;6152391;23;20428;-88
2021/11/18 04:12:15;;;;;;;19.80;11.20;;;11.70;53.30;;;;;;6126941;23;20414;-89
2021/11/18 04:14:42;;;;;;;24.20;13.53;;;11.70;54.20;;;;;;6127650;23;20467;-89
2021/11/18 04:17:10;;;;;;;17.60;12.70;;;12.20;54.00;;;;;;6126387;23;20440;-88
2021/11/18 04:19:38;;;;;;;23.60;14.30;;;12.30;52.40;;;;;;6125931;23;20435;-89
2021/11/18 04:22:07;;;;;;;20.80;13.77;;;11.90;52.90;;;;;;6127550;23;20442;-89
2021/11/18 04:24:35;;;;;;;21.00;14.50;;;11.90;53.00;;;;;;6127185;23;20475;-88
2021/11/18 04:27:04;;;;;;;23.57;14.67;;;12.00;54.10;;;;;;6126912;23;20435;-89
2021/11/18 04:29:31;;;;;;;24.53;15.10;;;11.90;53.90;;;;;;6127299;23;20453;-89
2021/11/18 04:32:01;;;;;;;18.00;13.07;;;11.60;54.00;;;;;;6127767;23;20469;-88
2021/11/18 04:34:29;;;;;;;26.73;14.00;;;11.70;55.20;;;;;;6128482;23;20392;-88
2021/11/18 04:36:57;;;;;;;28.60;14.23;;;12.10;54.40;;;;;;6127408;23;20946;-88
2021/11/18 04:39:25;;;;;;;31.87;15.93;;;12.20;54.00;;;;;;6126772;23;20744;-89
2021/11/18 04:41:52;;;;;;;23.87;15.17;;;12.10;54.10;;;;;;6126777;23;20487;-89
2021/11/18 04:44:20;;;;;;;20.83;13.10;;;11.80;53.70;;;;;;6126809;23;20867;-89
2021/11/18 04:46:47;;;;;;;22.77;14.07;;;12.20;56.20;;;;;;6127569;23;20785;-89
2021/11/18 04:49:14;;;;;;;26.93;15.83;;;12.20;55.50;;;;;;6126963;23;20431;-89
2021/11/18 04:51:42;;;;;;;29.90;15.60;;;11.90;54.10;;;;;;6126435;23;20408;-89
2021/11/18 04:54:09;;;;;;;26.40;15.93;;;11.50;55.40;;;;;;6126644;23;20400;-89
2021/11/18 04:56:38;;;;;;;32.63;16.60;;;11.70;55.50;;;;;;6126667;23;20422;-89
2021/11/18 04:59:07;;;;;;;19.13;10.43;;;11.70;54.60;;;;;;6126279;23;20413;-88
2021/11/18 05:01:35;;;;;;;29.30;14.93;;;12.00;58.20;;;;;;6126027;23;20744;-88
2021/11/18 05:04:03;;;;;;;28.83;15.67;;;12.00;54.10;;;;;;6127247;23;20442;-89
2021/11/18 05:06:30;;;;;;;22.47;14.37;;;12.10;54.50;;;;;;6126949;23;20412;-88
2021/11/18 05:08:57;;;;;;;18.87;11.53;;;12.20;53.60;;;;;;6147055;23;20397;-88
2021/11/18 05:11:24;;;;;;;22.40;15.27;;;12.50;56.60;;;;;;6136535;23;20548;-88
2021/11/18 05:13:52;;;;;;;25.27;15.37;;;12.60;55.50;;;;;;6126521;23;20491;-88
2021/11/18 05:16:20;;;;;;;23.10;14.43;;;12.60;53.60;;;;;;6126652;23;20486;-88
2021/11/18 05:18:47;;;;;;;25.23;15.37;;;12.70;54.10;;;;;;6126604;23;20442;-88
2021/11/18 05:21:16;;;;;;;36.43;15.23;;;12.80;52.60;;;;;;6127280;23;20502;-88
2021/11/18 05:23:44;;;;;;;23.10;13.10;;;13.00;54.40;;;;;;6125928;23;20482;-88
2021/11/18 05:26:14;;;;;;;18.53;13.40;;;13.10;54.50;;;;;;6126388;23;20486;-88
2021/11/18 05:28:41;;;;;;;23.97;14.63;;;13.00;52.30;;;;;;6126103;23;20385;-89
2021/11/18 05:31:10;;;;;;;24.93;15.43;;;12.80;53.10;;;;;;6126713;23;20442;-89
2021/11/18 05:33:37;;;;;;;21.33;13.90;;;12.90;52.20;;;;;;6126576;23;20468;-89
2021/11/18 05:36:05;;;;;;;19.87;13.93;;;12.70;52.90;;;;;;6125150;23;20423;-89
2021/11/18 05:38:32;;;;;;;23.03;12.93;;;13.00;55.30;;;;;;6125347;23;20998;-89
2021/11/18 05:40:59;;;;;;;23.13;12.73;;;13.30;55.90;;;;;;6126691;23;20412;-89
2021/11/18 05:43:28;;;;;;;23.20;14.60;;;13.50;53.20;;;;;;6126874;23;20435;-89
2021/11/18 05:45:56;;;;;;;22.40;14.33;;;13.40;52.60;;;;;;6127067;23;20437;-89
2021/11/18 05:48:25;;;;;;;22.60;15.53;;;13.40;52.60;;;;;;6126778;23;20414;-88
2021/11/18 05:50:55;;;;;;;25.00;16.50;;;13.10;51.10;;;;;;6128678;23;20950;-89
2021/11/18 05:53:26;;;;;;;27.23;16.27;;;13.00;52.30;;;;;;6128932;23;20388;-88
2021/11/18 05:55:53;;;;;;;40.83;15.10;;;13.10;52.40;;;;;;6130250;23;20399;-87
2021/11/18 05:58:20;;;;;;;23.80;14.33;;;12.80;52.10;;;;;;6130156;23;20439;-88
2021/11/18 06:00:47;;;;;;;33.83;16.57;;;12.70;55.00;;;;;;6129353;23;20514;-88
2021/11/18 06:03:14;;;;;;;32.27;18.77;;;13.00;54.10;;;;;;6132280;23;20391;-89
2021/11/18 06:05:43;;;;;;;29.23;17.57;;;12.50;52.10;;;;;;6131835;23;20498;-88
2021/11/18 06:08:10;;;;;;;31.87;17.53;;;12.60;53.80;;;;;;6139121;23;20422;-89
2021/11/18 06:10:38;;;;;;;32.33;16.20;;;12.40;53.70;;;;;;6128866;23;20840;-88
2021/11/18 06:13:06;;;;;;;29.97;17.57;;;12.20;54.30;;;;;;6129136;23;20408;-89
2021/11/18 06:15:33;;;;;;;28.67;16.23;;;12.00;54.20;;;;;;6128849;23;20461;-88
2021/11/18 06:18:01;;;;;;;27.67;16.33;;;12.10;54.00;;;;;;6129415;23;20785;-89
2021/11/18 06:20:28;;;;;;;24.47;15.90;;;12.30;55.10;;;;;;6128200;23;20455;-89
2021/11/18 06:22:57;;;;;;;23.43;12.23;;;12.40;54.60;;;;;;6127502;23;20434;-89
2021/11/18 06:25:28;;;;;;;18.53;10.13;;;12.40;57.50;;;;;;6130640;23;20423;-90
2021/11/18 06:27:55;;;;;;;14.00;8.97;;;13.50;58.90;;;;;;6131444;23;20454;-90
2021/11/18 06:30:24;;;;;;;24.93;15.47;;;14.50;56.20;;;;;;6132055;23;20422;-89
2021/11/18 06:32:51;;;;;;;21.23;13.90;;;13.90;50.30;;;;;;6130518;23;20396;-90
2021/11/18 06:35:19;;;;;;;22.67;14.90;;;13.20;51.30;;;;;;6132286;23;20478;-90
2021/11/18 06:37:46;;;;;;;23.60;15.17;;;12.80;52.10;;;;;;6131278;23;20474;-89
2021/11/18 06:40:16;;;;;;;23.00;15.37;;;12.60;53.00;;;;;;6148988;23;20446;-89
2021/11/18 06:42:44;;;;;;;23.87;15.57;;;12.40;52.50;;;;;;6141503;23;20400;-89
2021/11/18 06:45:15;;;;;;;27.00;16.90;;;12.30;53.90;;;;;;6131053;23;20671;-89
2021/11/18 06:47:42;;;;;;;28.73;18.07;;;12.30;53.20;;;;;;6151169;23;20391;-87
2021/11/18 06:50:10;;;;;;;25.20;15.90;;;12.30;53.50;;;;;;6132760;23;20529;-88
2021/11/18 06:52:37;;;;;;;27.73;15.77;;;12.30;53.60;;;;;;6130476;23;20880;-89
2021/11/18 06:55:05;;;;;;;28.50;15.50;;;12.30;55.30;;;;;;6129980;23;20416;-88
2021/11/18 06:57:34;;;;;;;24.80;15.70;;;12.20;54.60;;;;;;6132201;23;20455;-88
2021/11/18 07:00:01;;;;;;;32.47;16.50;;;12.20;54.20;;;;;;6132230;23;20472;-90
2021/11/18 07:02:28;;;;;;;30.77;17.10;;;12.20;53.90;;;;;;6132250;23;20418;-89
2021/11/18 07:04:55;;;;;;;24.17;15.33;;;12.20;54.60;;;;;;6131201;23;20500;-89
2021/11/18 07:07:22;;;;;;;23.30;15.60;;;12.20;54.10;;;;;;6131573;23;20421;-89
2021/11/18 07:09:49;;;;;;;13.50;8.50;;;12.40;54.30;;;;;;6132119;23;20452;-89
2021/11/18 07:12:18;;;;;;;31.57;15.90;;;13.40;58.40;;;;;;6132391;23;20459;-88
2021/11/18 07:14:48;;;;;;;31.50;16.63;;;13.30;52.50;;;;;;6138235;23;20422;-88
2021/11/18 07:17:21;;;;;;;29.37;17.17;;;12.90;52.20;;;;;;6149089;23;20402;-88
2021/11/18 07:19:48;;;;;;;25.23;15.93;;;12.50;53.00;;;;;;6132480;23;20443;-89
2021/11/18 07:22:16;;;;;;;28.00;16.73;;;12.50;54.00;;;;;;6131266;23;20399;-88
2021/11/18 07:24:43;;;;;;;27.50;15.50;;;12.30;54.00;;;;;;6132781;23;20469;-88
2021/11/18 07:27:11;;;;;;;30.07;17.90;;;12.30;55.00;;;;;;6132199;23;20684;-88
2021/11/18 07:29:38;;;;;;;26.20;15.67;;;12.20;54.80;;;;;;6131704;23;20486;-88
2021/11/18 07:32:07;;;;;;;36.23;17.13;;;12.20;54.80;;;;;;6133044;23;20401;-88
2021/11/18 07:34:34;;;;;;;22.47;14.37;;;12.40;55.10;;;;;;6135702;23;20415;-88
2021/11/18 07:37:01;;;;;;;28.17;16.57;;;12.60;56.00;;;;;;6143663;23;20421;-88
2021/11/18 07:39:28;;;;;;;29.07;16.80;;;12.80;53.50;;;;;;6146783;23;20436;-88
2021/11/18 07:41:55;;;;;;;25.90;14.40;;;12.60;54.70;;;;;;6147487;23;20403;-88
2021/11/18 07:44:25;;;;;;;25.70;15.80;;;12.80;53.90;;;;;;6137074;23;20407;-88
2021/11/18 07:46:52;;;;;;;26.73;16.07;;;12.60;53.30;;;;;;6148441;23;20402;-88
2021/11/18 07:49:20;;;;;;;27.33;15.53;;;12.70;54.20;;;;;;6154192;23;20410;-88
2021/11/18 07:51:48;;;;;;;30.93;13.80;;;12.70;53.40;;;;;;6153039;23;20411;-88
2021/11/18 07:54:17;;;;;;;24.83;14.50;;;12.90;55.60;;;;;;6154229;23;20443;-89
2021/11/18 07:56:45;;;;;;;23.40;13.30;;;12.90;53.90;;;;;;6153472;23;20396;-89
2021/11/18 07:59:15;;;;;;;24.60;15.30;;;12.90;55.00;;;;;;6153079;23;20437;-87
2021/11/18 08:01:42;;;;;;;27.97;16.17;;;13.00;52.90;;;;;;6154104;23;20398;-89
2021/11/18 08:04:10;;;;;;;25.23;14.90;;;12.90;52.70;;;;;;6153984;23;20400;-87
2021/11/18 08:06:39;;;;;;;24.77;14.30;;;12.90;52.70;;;;;;6154642;23;20392;-89
2021/11/18 08:09:10;;;;;;;26.20;15.60;;;13.10;52.80;;;;;;6153568;23;20416;-88
2021/11/18 08:11:39;;;;;;;22.83;14.40;;;13.20;54.50;;;;;;6153832;23;20395;-87
2021/11/18 08:14:07;;;;;;;25.13;16.30;;;13.20;52.50;;;;;;6153760;23;20403;-87
2021/11/18 08:16:35;;;;;;;25.37;16.10;;;12.70;52.60;;;;;;6154059;23;20490;-89
2021/11/18 08:19:04;;;;;;;29.57;16.67;;;12.80;53.60;;;;;;6154179;23;20430;-90
2021/11/18 08:21:31;;;;;;;22.13;14.27;;;12.90;53.20;;;;;;6152968;23;20414;-88
2021/11/18 08:23:59;;;;;;;22.57;14.57;;;13.10;53.60;;;;;;6153808;23;20435;-88
2021/11/18 08:26:26;;;;;;;23.80;14.87;;;12.70;52.80;;;;;;6153230;23;20435;-89
2021/11/18 08:28:54;;;;;;;24.60;15.17;;;12.90;53.50;;;;;;6153528;23;20408;-86
2021/11/18 08:31:21;;;;;;;19.97;12.90;;;13.10;53.10;;;;;;6152960;23;20415;-87
2021/11/18 08:33:50;;;;;;;26.43;15.57;;;12.90;53.20;;;;;;6153952;23;20391;-88
2021/11/18 08:36:17;;;;;;;26.37;15.73;;;12.80;52.90;;;;;;6153029;23;20418;-88
2021/11/18 08:38:45;;;;;;;27.87;15.83;;;13.20;52.80;;;;;;6152737;23;20427;-88
2021/11/18 08:41:13;;;;;;;28.53;14.60;;;13.10;52.40;;;;;;6153624;23;20415;-88
2021/11/18 08:43:43;;;;;;;23.50;14.23;;;13.10;52.40;;;;;;6153766;23;20392;-87
2021/11/18 08:46:12;;;;;;;21.97;15.13;;;13.10;52.60;;;;;;6153674;23;20435;-86
2021/11/18 08:48:40;;;;;;;21.47;13.63;;;13.30;52.50;;;;;;6152726;23;20419;-87
2021/11/18 08:51:07;;;;;;;20.50;13.70;;;13.50;52.70;;;;;;6153706;23;20424;-88
2021/11/18 08:53:37;;;;;;;22.57;14.37;;;13.40;52.30;;;;;;6153741;23;20400;-88
2021/11/18 08:56:05;;;;;;;20.73;12.40;;;13.70;51.90;;;;;;6152814;23;20477;-88
2021/11/18 08:58:36;;;;;;;21.73;13.77;;;14.10;51.70;;;;;;6153631;23;20435;-87
2021/11/18 09:01:07;;;;;;;27.27;15.77;;;14.40;50.60;;;;;;6153733;23;20431;-87
2021/11/18 09:03:34;;;;;;;24.20;14.23;;;14.20;51.80;;;;;;6153731;23;20384;-88
2021/11/18 09:06:03;;;;;;;22.23;12.90;;;14.10;50.40;;;;;;6153797;23;20392;-88
2021/11/18 09:08:30;;;;;;;22.03;12.87;;;14.30;49.90;;;;;;6153818;23;20380;-89
2021/11/18 09:10:58;;;;;;;16.80;11.93;;;14.20;50.90;;;;;;6153502;23;20440;-87
2021/11/18 09:13:25;;;;;;;15.90;10.80;;;13.90;51.00;;;;;;6153299;23;20388;-88
2021/11/18 09:15:55;;;;;;;22.40;12.87;;;14.10;51.80;;;;;;6153426;23;20399;-87
2021/11/18 09:18:22;;;;;;;19.93;12.40;;;13.90;50.40;;;;;;6153174;23;20424;-88
2021/11/18 09:20:57;;;;;;;21.83;12.20;;;13.90;50.80;;;;;;6153420;23;20407;-87
2021/11/18 09:23:28;;;;;;;22.37;12.90;;;13.90;50.00;;;;;;6152774;23;20417;-87
2021/11/18 09:25:56;;;;;;;15.60;8.67;;;14.20;50.00;;;;;;6152761;23;20387;-88
2021/11/18 09:28:26;;;;;;;24.43;12.33;;;14.60;52.40;;;;;;6153646;23;20411;-87
2021/11/18 09:30:58;;;;;;;19.90;12.27;;;14.30;48.60;;;;;;6153698;23;20414;-85
2021/11/18 09:33:26;;;;;;;37.90;13.53;;;14.40;49.80;;;;;;6153644;23;20466;-85
2021/11/18 09:35:56;;;;;;;22.63;13.10;;;14.30;49.60;;;;;;6153928;23;20467;-83
2021/11/18 09:38:28;;;;;;;20.07;12.50;;;14.20;49.30;;;;;;6153833;23;20493;-84
2021/11/18 09:41:03;;;;;;;19.13;11.23;;;14.10;49.50;;;;;;6153967;23;20459;-85
2021/11/18 09:44:01;;;;;;;20.13;12.47;;;13.80;50.30;;;;;;6153957;23;20482;-86
2021/11/18 09:47:09;;;;;;;21.03;12.33;;;13.80;49.80;;;;;;6153447;23;20368;-87
2021/11/18 09:49:59;;;;;;;19.23;12.07;;;14.20;50.10;;;;;;6063737;23;20591;-85
2021/11/18 09:52:34;;;;;;;17.20;11.67;;;14.50;49.90;;;;;;6063564;23;20437;-88
2021/11/18 09:55:10;;;;;;;17.70;11.60;;;14.60;48.00;;;;;;6065054;23;20391;-86
2021/11/18 10:01:01;;;;;;;18.83;11.50;;;14.20;49.00;;;;;;6060393;23;20443;-88
2021/11/18 10:03:37;;;;;;;15.73;10.90;;;14.30;49.20;;;;;;6065293;23;20413;-85
2021/11/18 10:06:22;;;;;;;16.50;9.57;;;14.50;49.30;;;;;;6063026;23;20406;-84
2021/11/18 10:08:59;;;;;;;21.37;11.47;;;14.40;48.70;;;;;;6063422;23;20408;-84
2021/11/18 10:11:48;;;;;;;15.40;9.50;;;14.10;48.90;;;;;;6064327;23;20394;-86
2021/11/18 10:14:43;;;;;;;16.43;10.50;;;14.20;48.90;;;;;;6064504;23;20386;-85
2021/11/18 10:17:19;;;;;;;16.57;10.77;;;14.20;49.40;;;;;;6064507;23;20375;-84
2021/11/18 10:19:50;;;;;;;15.63;9.97;;;14.60;51.30;;;;;;6064399;23;20447;-85
2021/11/18 10:22:18;;;;;;;17.30;10.40;;;14.40;48.10;;;;;;6064051;23;20418;-85
2021/11/18 10:24:55;;;;;;;18.77;11.10;;;14.20;49.00;;;;;;6097495;23;20394;-85
2021/11/18 10:27:25;;;;;;;15.83;9.83;;;14.20;50.00;;;;;;6152751;23;20437;-85
2021/11/18 10:30:17;;;;;;;19.97;9.40;;;14.40;49.50;;;;;;6152934;23;20412;-85
2021/11/18 10:32:49;;;;;;;13.50;9.70;;;14.60;49.00;;;;;;6152675;23;20430;-86
2021/11/18 10:35:25;;;;;;;14.90;9.67;;;14.80;48.50;;;;;;6152896;23;20459;-85
2021/11/18 10:37:53;;;;;;;12.87;8.93;;;14.80;47.80;;;;;;6152961;23;20381;-83
2021/11/18 10:40:23;;;;;;;26.70;9.30;;;14.50;48.90;;;;;;6152363;23;20504;-87
2021/11/18 10:42:52;;;;;;;15.60;10.10;;;14.60;48.80;;;;;;6152992;23;20392;-85
2021/11/18 10:45:37;;;;;;;17.30;10.60;;;14.70;48.40;;;;;;6152892;23;20388;-85
2021/11/18 10:48:08;;;;;;;15.63;9.53;;;14.70;48.40;;;;;;6151866;23;20409;-85
2021/11/18 10:50:46;;;;;;;13.83;9.73;;;14.80;48.00;;;;;;6152782;23;20459;-85
2021/11/18 10:53:18;;;;;;;13.83;9.60;;;14.60;49.10;;;;;;6152559;23;20373;-85
2021/11/18 10:55:47;;;;;;;12.90;9.10;;;14.90;47.90;;;;;;6152503;23;20402;-85
2021/11/18 10:58:31;;;;;;;14.50;9.43;;;15.00;48.90;;;;;;6152694;23;20394;-86
2021/11/18 11:01:02;;;;;;;24.70;9.57;;;15.20;47.60;;;;;;6152486;23;20431;-86
2021/11/18 11:03:35;;;;;;;13.23;9.50;;;15.10;47.20;;;;;;6135362;23;20499;-87
2021/11/18 11:06:16;;;;;;;16.83;9.90;;;15.40;47.80;;;;;;6126139;23;20450;-89
2021/11/18 11:08:45;;;;;;;16.90;11.40;;;15.30;47.40;;;;;;6126730;23;20422;-88
2021/11/18 11:11:24;;;;;;;12.87;9.10;;;14.90;47.50;;;;;;6126361;23;20487;-88
2021/11/18 11:14:30;;;;;;;19.23;12.57;;;15.00;47.10;;;;;;6127583;23;20429;-88
2021/11/18 11:17:21;;;;;;;15.33;8.63;;;15.10;47.20;;;;;;6126522;23;20410;-87
2021/11/18 11:19:54;;;;;;;12.57;8.17;;;14.90;47.60;;;;;;6126619;23;20479;-87
2021/11/18 11:22:30;;;;;;;14.60;7.53;;;14.90;47.00;;;;;;6125569;23;20456;-87
2021/11/18 11:25:45;;;;;;;11.40;6.30;;;14.90;48.00;;;;;;6126222;23;20388;-88
2021/11/18 11:28:54;;;;;;;5.17;3.97;;;15.40;45.80;;;;;;6045855;23;20883;-87
2021/11/18 11:31:42;;;;;;;4.30;3.83;;;15.70;43.50;;;;;;6040101;23;20430;-86
2021/11/18 11:34:41;;;;;;;6.20;4.83;;;15.30;42.70;;;;;;6126944;23;20411;-88
2021/11/18 11:37:54;;;;;;;5.53;4.30;;;15.00;44.10;;;;;;6129020;23;20430;-87
2021/11/18 11:40:29;;;;;;;3.67;3.30;;;15.20;44.50;;;;;;6128381;23;20472;-88
2021/11/18 11:43:31;;;;;;;4.43;4.10;;;15.30;43.60;;;;;;6128785;23;20808;-88
2021/11/18 11:46:25;;;;;;;7.17;5.40;;;15.50;43.00;;;;;;6115879;23;20413;-87
2021/11/18 11:49:11;;;;;;;7.33;5.50;;;15.60;42.50;;;;;;6131283;23;20724;-88
2021/11/18 11:52:15;;;;;;;6.60;5.93;;;15.40;42.60;;;;;;6134063;23;20769;-87
2021/11/18 11:54:56;;;;;;;5.40;4.37;;;15.40;42.10;;;;;;6109102;23;20410;-87
2021/11/18 11:57:44;;;;;;;4.43;4.13;;;15.60;44.20;;;;;;6131495;23;20394;-87
2021/11/18 12:00:19;;;;;;;6.07;4.60;;;15.70;43.30;;;;;;6133536;23;20455;-87
2021/11/18 12:02:57;;;;;;;5.20;4.47;;;15.60;42.10;;;;;;6134211;23;20781;-87
2021/11/18 12:05:28;;;;;;;5.50;4.60;;;15.70;42.60;;;;;;6133137;23;20399;-88
2021/11/18 12:08:04;;;;;;;8.47;4.60;;;15.80;42.20;;;;;;6130596;23;20583;-87
2021/11/18 12:10:36;;;;;;;5.90;5.20;;;15.60;42.50;;;;;;6127507;23;20778;-87
2021/11/18 12:13:23;;;;;;;8.47;4.67;;;15.50;42.30;;;;;;6129167;23;20531;-87
2021/11/18 12:15:55;;;;;;;6.33;5.10;;;15.40;42.60;;;;;;6127575;23;20466;-87
2021/11/18 12:18:28;;;;;;;5.70;4.80;;;15.40;42.80;;;;;;6128286;23;20434;-87
2021/11/18 12:20:57;;;;;;;5.63;4.83;;;15.50;41.70;;;;;;6127332;23;20538;-88
2021/11/18 12:24:03;;;;;;;6.97;5.10;;;15.40;42.20;;;;;;6128057;23;20415;-88
2021/11/18 12:26:44;;;;;;;6.90;5.10;;;15.30;42.50;;;;;;6126480;23;20444;-87
2021/11/18 12:29:25;;;;;;;5.63;4.93;;;15.10;44.20;;;;;;6131730;23;20451;-87
2021/11/18 12:32:26;;;;;;;8.03;4.90;;;15.60;45.20;;;;;;6150271;23;20379;-88
2021/11/18 12:34:57;;;;;;;7.30;5.10;;;15.60;41.90;;;;;;6145385;23;20421;-87
2021/11/18 12:37:28;;;;;;;5.90;4.47;;;15.30;42.50;;;;;;6133504;23;20887;-87
2021/11/18 12:40:16;;;;;;;11.13;4.70;;;15.20;42.80;;;;;;6128571;23;20723;-88
2021/11/18 12:43:13;;;;;;;10.60;4.57;;;15.20;42.70;;;;;;6130043;23;20396;-87
2021/11/18 12:46:06;;;;;;;5.10;4.27;;;15.10;42.30;;;;;;6128885;23;20408;-89
2021/11/18 12:49:06;;;;;;;6.80;4.80;;;15.20;43.30;;;;;;6124656;23;20532;-87
2021/11/18 12:52:10;;;;;;;5.60;4.33;;;15.20;43.90;;;;;;6127971;23;20392;-86
2021/11/18 12:54:40;;;;;;;5.83;3.80;;;15.30;42.20;;;;;;6075066;23;20943;-87
2021/11/18 12:57:25;;;;;;;5.30;4.00;;;15.30;43.40;;;;;;6126721;23;20470;-87